Time;durP1;ratioP1;P1;durP2;ratioP2;P2;SDS_P1;SDS_P2;PMS_P1;PMS_P2;Temp;Humidity;BMP_temperature;BMP_pressure;BME280_temperature;BME280_humidity;BME280_pressure;Samples;Min_cycle;Max_cycle;Signal;HPM_P1;HPM_P2
2020/10/06 00:01:36;;;;;;;;;14.25;14.00;;;;;;;;3724930;38;18158;-57
2020/10/06 00:04:03;;;;;;;;;14.00;12.50;;;;;;;;3725199;38;21114;-57
2020/10/06 00:06:30;;;;;;;;;14.25;12.00;;;;;;;;3725526;38;21416;-55
2020/10/06 00:08:56;;;;;;;;;13.75;11.50;;;;;;;;3725300;38;21208;-56
2020/10/06 00:11:23;;;;;;;;;14.75;14.75;;;;;;;;3725319;38;21409;-56
2020/10/06 00:13:49;;;;;;;;;10.25;10.25;;;;;;;;3725176;37;21395;-56
2020/10/06 00:16:16;;;;;;;;;15.50;14.00;;;;;;;;3725242;37;21371;-56
2020/10/06 00:18:44;;;;;;;;;16.25;14.00;;;;;;;;3725187;37;21382;-56
2020/10/06 00:21:10;;;;;;;;;11.25;11.25;;;;;;;;3725076;38;21383;-57
2020/10/06 00:23:38;;;;;;;;;13.50;13.50;;;;;;;;3725289;37;20729;-56
2020/10/06 00:26:08;;;;;;;;;13.75;12.75;;;;;;;;3725194;37;21209;-56
2020/10/06 00:28:34;;;;;;;;;11.50;11.50;;;;;;;;3724895;38;21389;-56
2020/10/06 00:31:00;;;;;;;;;13.00;12.75;;;;;;;;3725046;38;21336;-56
2020/10/06 00:33:29;;;;;;;;;13.75;12.75;;;;;;;;3725570;37;18063;-56
2020/10/06 00:35:56;;;;;;;;;13.00;12.50;;;;;;;;3725877;37;20754;-52
2020/10/06 00:38:22;;;;;;;;;16.00;12.50;;;;;;;;3728528;38;20754;-55
2020/10/06 00:40:53;;;;;;;;;15.25;12.75;;;;;;;;3730000;37;20776;-55
2020/10/06 00:43:19;;;;;;;;;15.25;12.50;;;;;;;;3725795;37;20755;-57
2020/10/06 00:45:47;;;;;;;;;12.25;12.00;;;;;;;;3725656;38;20872;-56
2020/10/06 00:48:13;;;;;;;;;13.50;13.00;;;;;;;;3725160;37;20759;-56
2020/10/06 00:50:39;;;;;;;;;16.50;14.25;;;;;;;;3725715;38;20749;-56
2020/10/06 00:53:07;;;;;;;;;12.50;11.50;;;;;;;;3725763;38;18017;-56
2020/10/06 00:55:35;;;;;;;;;14.00;11.75;;;;;;;;3725696;38;20642;-57
2020/10/06 00:58:00;;;;;;;;;15.00;13.50;;;;;;;;3725672;38;20617;-56
2020/10/06 01:00:30;;;;;;;;;13.75;12.50;;;;;;;;3725501;37;20753;-56
2020/10/06 01:02:56;;;;;;;;;14.25;13.50;;;;;;;;3725728;38;20695;-56
2020/10/06 01:05:22;;;;;;;;;13.25;12.00;;;;;;;;3725663;38;20674;-57
2020/10/06 01:07:49;;;;;;;;;14.75;12.75;;;;;;;;3725498;37;20674;-58
2020/10/06 01:10:15;;;;;;;;;16.00;13.75;;;;;;;;3725481;37;20603;-57
2020/10/06 01:12:41;;;;;;;;;16.50;14.25;;;;;;;;3725568;38;20706;-58
2020/10/06 01:15:09;;;;;;;;;13.75;11.75;;;;;;;;3725723;38;17975;-57
2020/10/06 01:17:36;;;;;;;;;14.50;12.50;;;;;;;;3725563;38;20695;-57
2020/10/06 01:20:02;;;;;;;;;14.25;13.00;;;;;;;;3725464;37;20976;-58
2020/10/06 01:22:29;;;;;;;;;14.00;13.75;;;;;;;;3725583;37;20564;-57
2020/10/06 01:24:55;;;;;;;;;14.25;13.75;;;;;;;;3725618;38;20697;-56
2020/10/06 01:27:21;;;;;;;;;12.25;12.25;;;;;;;;3725662;38;20598;-56
2020/10/06 01:29:47;;;;;;;;;14.00;13.50;;;;;;;;3725684;38;17984;-56
2020/10/06 01:32:13;;;;;;;;;11.25;11.25;;;;;;;;3725620;38;17966;-56
2020/10/06 01:34:39;;;;;;;;;13.75;11.50;;;;;;;;3725740;38;17975;-56
2020/10/06 01:37:05;;;;;;;;;11.25;10.25;;;;;;;;3725723;37;20558;-57
2020/10/06 01:39:33;;;;;;;;;14.50;13.25;;;;;;;;3725569;37;20577;-57
2020/10/06 01:42:00;;;;;;;;;12.25;12.25;;;;;;;;3725813;37;17978;-57
2020/10/06 01:44:26;;;;;;;;;11.50;11.50;;;;;;;;3725654;38;20542;-56
2020/10/06 01:46:52;;;;;;;;;13.00;12.00;;;;;;;;3725649;38;20571;-56
2020/10/06 01:49:17;;;;;;;;;13.25;11.50;;;;;;;;3725677;38;17966;-57
2020/10/06 01:51:43;;;;;;;;;11.50;11.50;;;;;;;;3725762;37;17962;-56
2020/10/06 01:54:10;;;;;;;;;12.00;10.75;;;;;;;;3725734;38;17963;-55
2020/10/06 01:56:37;;;;;;;;;13.50;13.00;;;;;;;;3725709;38;17930;-57
2020/10/06 01:59:04;;;;;;;;;12.75;11.00;;;;;;;;3725248;37;20533;-57
2020/10/06 02:01:30;;;;;;;;;13.00;12.50;;;;;;;;3725620;38;20570;-58
2020/10/06 02:03:56;;;;;;;;;13.75;12.00;;;;;;;;3725628;37;17931;-57
2020/10/06 02:06:23;;;;;;;;;12.75;12.50;;;;;;;;3725598;37;20542;-57
2020/10/06 02:08:50;;;;;;;;;11.25;11.25;;;;;;;;3725664;38;17937;-57
2020/10/06 02:11:16;;;;;;;;;11.75;11.75;;;;;;;;3725563;37;20537;-57
2020/10/06 02:13:42;;;;;;;;;13.00;11.75;;;;;;;;3725565;37;20657;-56
2020/10/06 02:16:08;;;;;;;;;13.50;13.00;;;;;;;;3725714;38;17931;-56
2020/10/06 02:18:34;;;;;;;;;14.25;14.00;;;;;;;;3725676;37;20558;-56
2020/10/06 02:21:00;;;;;;;;;12.00;12.00;;;;;;;;3725686;37;17915;-56
2020/10/06 02:23:26;;;;;;;;;14.50;13.50;;;;;;;;3725751;38;17907;-55
2020/10/06 02:25:52;;;;;;;;;20.00;14.25;;;;;;;;3725753;38;17919;-57
2020/10/06 02:28:19;;;;;;;;;13.50;13.00;;;;;;;;3725785;37;17894;-57
2020/10/06 02:30:45;;;;;;;;;15.25;13.75;;;;;;;;3725669;37;20599;-59
2020/10/06 02:33:13;;;;;;;;;13.75;11.75;;;;;;;;3725663;37;20610;-60
2020/10/06 02:35:39;;;;;;;;;11.50;11.25;;;;;;;;3725179;37;17905;-59
2020/10/06 02:38:08;;;;;;;;;14.00;14.00;;;;;;;;3725502;38;20578;-57
2020/10/06 02:40:34;;;;;;;;;14.75;13.00;;;;;;;;3726017;37;20540;-58
2020/10/06 02:43:00;;;;;;;;;13.50;12.25;;;;;;;;3725937;38;17894;-57
2020/10/06 02:45:25;;;;;;;;;13.75;13.25;;;;;;;;3725692;38;17891;-56
2020/10/06 02:47:52;;;;;;;;;11.75;11.25;;;;;;;;3726038;37;17900;-57
2020/10/06 02:50:17;;;;;;;;;14.25;13.50;;;;;;;;3725587;37;17900;-57
2020/10/06 02:52:43;;;;;;;;;15.75;14.50;;;;;;;;3725656;38;20515;-57
2020/10/06 02:55:11;;;;;;;;;13.50;12.00;;;;;;;;3737192;38;17863;-57
2020/10/06 02:57:37;;;;;;;;;14.00;13.50;;;;;;;;3730371;38;17865;-57
2020/10/06 03:00:04;;;;;;;;;12.25;11.25;;;;;;;;3725367;37;20502;-56
2020/10/06 03:02:30;;;;;;;;;14.75;12.75;;;;;;;;3725161;38;20450;-56
2020/10/06 03:04:57;;;;;;;;;12.75;12.00;;;;;;;;3725390;38;20481;-56
2020/10/06 03:07:23;;;;;;;;;12.75;11.75;;;;;;;;3725170;38;17861;-58
2020/10/06 03:09:49;;;;;;;;;14.75;12.00;;;;;;;;3725538;37;20470;-58
2020/10/06 03:12:19;;;;;;;;;13.75;13.00;;;;;;;;3725401;38;17845;-57
2020/10/06 03:14:45;;;;;;;;;13.00;12.00;;;;;;;;3725670;38;20493;-58
2020/10/06 03:17:12;;;;;;;;;12.00;11.25;;;;;;;;3725591;37;20443;-56
2020/10/06 03:19:39;;;;;;;;;15.75;13.25;;;;;;;;3725497;37;20458;-58
2020/10/06 03:22:07;;;;;;;;;16.75;14.75;;;;;;;;3725660;37;20458;-59
2020/10/06 03:24:33;;;;;;;;;15.50;15.00;;;;;;;;3725447;37;20449;-56
2020/10/06 03:26:59;;;;;;;;;13.75;12.50;;;;;;;;3725702;37;20449;-57
2020/10/06 03:29:25;;;;;;;;;14.00;12.75;;;;;;;;3725615;38;20472;-54
2020/10/06 03:31:51;;;;;;;;;17.25;16.75;;;;;;;;3725750;38;17816;-54
2020/10/06 03:34:19;;;;;;;;;15.00;14.00;;;;;;;;3725659;38;17828;-54
2020/10/06 03:36:44;;;;;;;;;13.75;13.00;;;;;;;;3725432;38;20451;-55
2020/10/06 03:39:10;;;;;;;;;15.75;14.75;;;;;;;;3725431;38;20433;-54
2020/10/06 03:41:41;;;;;;;;;17.00;14.00;;;;;;;;3725492;37;17823;-54
2020/10/06 03:44:07;;;;;;;;;16.25;14.00;;;;;;;;3725263;37;20939;-54
2020/10/06 03:46:35;;;;;;;;;18.00;16.00;;;;;;;;3724936;38;21134;-55
2020/10/06 03:49:01;;;;;;;;;17.25;15.00;;;;;;;;3725209;38;20976;-54
2020/10/06 03:51:27;;;;;;;;;16.50;13.00;;;;;;;;3725308;37;21121;-56
2020/10/06 03:53:53;;;;;;;;;18.00;15.25;;;;;;;;3725525;38;17848;-54
2020/10/06 03:56:19;;;;;;;;;16.75;14.50;;;;;;;;3725326;37;21104;-56
2020/10/06 03:58:46;;;;;;;;;16.50;15.75;;;;;;;;3725299;38;17855;-55
2020/10/06 04:01:22;;;;;;;;;17.00;15.00;;;;;;;;3725122;38;20948;-56
2020/10/06 04:03:57;;;;;;;;;15.25;13.75;;;;;;;;3725225;38;17837;-57
2020/10/06 04:06:23;;;;;;;;;17.00;13.25;;;;;;;;3724641;38;20933;-57
2020/10/06 04:08:49;;;;;;;;;14.75;14.25;;;;;;;;3725249;37;20882;-57
2020/10/06 04:11:16;;;;;;;;;15.00;14.00;;;;;;;;3725097;37;20955;-56
2020/10/06 04:13:43;;;;;;;;;21.75;16.25;;;;;;;;3725106;37;21094;-56
2020/10/06 04:16:09;;;;;;;;;17.50;16.00;;;;;;;;3725309;38;17827;-56
2020/10/06 04:18:45;;;;;;;;;15.50;14.25;;;;;;;;3725239;38;21087;-56
2020/10/06 04:21:11;;;;;;;;;20.00;14.75;;;;;;;;3725363;38;17797;-56
2020/10/06 04:23:49;;;;;;;;;16.25;14.00;;;;;;;;3725254;37;21051;-57
2020/10/06 04:26:16;;;;;;;;;17.00;13.75;;;;;;;;3725242;38;21053;-56
2020/10/06 04:28:44;;;;;;;;;17.75;14.75;;;;;;;;3725149;37;21087;-56
2020/10/06 04:31:11;;;;;;;;;13.50;13.00;;;;;;;;3725301;38;21049;-54
2020/10/06 04:33:44;;;;;;;;;15.25;13.00;;;;;;;;3725177;37;20979;-57
2020/10/06 04:36:10;;;;;;;;;12.75;11.00;;;;;;;;3725150;37;21075;-58
2020/10/06 04:38:38;;;;;;;;;30.25;23.25;;;;;;;;3725192;38;21063;-56
2020/10/06 04:41:13;;;;;;;;;26.75;19.00;;;;;;;;3725290;37;20877;-57
2020/10/06 04:43:41;;;;;;;;;16.50;15.00;;;;;;;;3725389;37;20909;-55
2020/10/06 04:46:14;;;;;;;;;17.00;14.75;;;;;;;;3725282;38;21021;-59
2020/10/06 04:48:40;;;;;;;;;13.25;13.25;;;;;;;;3725286;37;21035;-55
2020/10/06 04:51:07;;;;;;;;;15.75;14.00;;;;;;;;3725303;38;21017;-54
2020/10/06 04:53:35;;;;;;;;;18.00;16.00;;;;;;;;3725463;38;21049;-55
2020/10/06 04:56:01;;;;;;;;;16.50;15.00;;;;;;;;3725002;38;21016;-56
2020/10/06 04:58:45;;;;;;;;;16.00;13.00;;;;;;;;3725127;37;21024;-57
2020/10/06 05:01:12;;;;;;;;;21.25;15.00;;;;;;;;3725222;38;21037;-54
2020/10/06 05:03:46;;;;;;;;;18.75;16.00;;;;;;;;3725420;37;21006;-54
2020/10/06 05:06:13;;;;;;;;;15.00;14.75;;;;;;;;3725279;37;20848;-55
2020/10/06 05:08:40;;;;;;;;;19.75;16.00;;;;;;;;3726998;38;21013;-55
2020/10/06 05:11:09;;;;;;;;;18.75;16.25;;;;;;;;3727455;37;21011;-56
2020/10/06 05:13:36;;;;;;;;;18.75;15.00;;;;;;;;3725473;37;21004;-55
2020/10/06 05:16:02;;;;;;;;;23.00;19.00;;;;;;;;3725432;38;20863;-55
2020/10/06 05:18:28;;;;;;;;;17.75;16.75;;;;;;;;3725271;37;17716;-55
2020/10/06 05:20:54;;;;;;;;;21.00;17.75;;;;;;;;3725677;37;17734;-55
2020/10/06 05:23:21;;;;;;;;;15.75;14.75;;;;;;;;3725801;37;17720;-55
2020/10/06 05:25:54;;;;;;;;;18.50;15.00;;;;;;;;3725625;37;20972;-56
2020/10/06 05:28:26;;;;;;;;;17.75;16.50;;;;;;;;3725098;38;20998;-56
2020/10/06 05:31:08;;;;;;;;;18.50;16.50;;;;;;;;3725481;37;20976;-56
2020/10/06 05:33:47;;;;;;;;;17.00;16.00;;;;;;;;3724870;38;20986;-57
2020/10/06 05:36:15;;;;;;;;;16.00;15.00;;;;;;;;3724625;37;20665;-54
2020/10/06 05:38:42;;;;;;;;;21.00;17.50;;;;;;;;3725146;38;20983;-56
2020/10/06 05:41:09;;;;;;;;;17.75;16.25;;;;;;;;3724608;37;20839;-56
2020/10/06 05:43:36;;;;;;;;;19.75;17.25;;;;;;;;3725110;37;20791;-56
2020/10/06 05:46:03;;;;;;;;;27.50;22.75;;;;;;;;3725315;37;20805;-57
2020/10/06 05:48:29;;;;;;;;;26.50;21.75;;;;;;;;3724873;38;20785;-55
2020/10/06 05:51:04;;;;;;;;;21.00;19.00;;;;;;;;3725473;37;20761;-57
2020/10/06 05:53:37;;;;;;;;;19.50;16.75;;;;;;;;3725159;38;17673;-57
2020/10/06 05:56:16;;;;;;;;;24.50;19.25;;;;;;;;3725494;38;20800;-57
2020/10/06 05:58:42;;;;;;;;;19.00;17.50;;;;;;;;3725282;38;20751;-56
2020/10/06 06:01:09;;;;;;;;;21.75;18.00;;;;;;;;3725022;37;20955;-55
2020/10/06 06:03:35;;;;;;;;;22.50;19.00;;;;;;;;3725238;38;20772;-55
2020/10/06 06:06:15;;;;;;;;;17.75;17.00;;;;;;;;3725538;38;20713;-56
2020/10/06 06:08:41;;;;;;;;;20.00;17.50;;;;;;;;3725212;37;20734;-57
2020/10/06 06:11:08;;;;;;;;;21.75;19.75;;;;;;;;3725333;38;17664;-56
2020/10/06 06:13:34;;;;;;;;;20.25;17.25;;;;;;;;3725329;38;21911;-55
2020/10/06 06:16:01;;;;;;;;;21.25;18.00;;;;;;;;3725466;38;17670;-55
2020/10/06 06:18:28;;;;;;;;;22.00;19.75;;;;;;;;3725405;37;21745;-55
2020/10/06 06:20:55;;;;;;;;;27.75;22.00;;;;;;;;3725313;37;20750;-55
2020/10/06 06:23:21;;;;;;;;;25.00;20.25;;;;;;;;3725340;38;21742;-55
2020/10/06 06:25:48;;;;;;;;;22.25;17.50;;;;;;;;3725218;37;18639;-55
2020/10/06 06:28:13;;;;;;;;;20.00;17.75;;;;;;;;3724569;37;18704;-55
2020/10/06 06:30:40;;;;;;;;;26.25;22.25;;;;;;;;3724645;37;21690;-55
2020/10/06 06:33:06;;;;;;;;;22.00;19.00;;;;;;;;3725333;37;21701;-55
2020/10/06 06:35:34;;;;;;;;;26.25;20.50;;;;;;;;3725349;37;21732;-54
2020/10/06 06:38:01;;;;;;;;;25.75;19.75;;;;;;;;3725340;38;21723;-56
2020/10/06 06:40:27;;;;;;;;;18.50;15.75;;;;;;;;3725209;37;21704;-55
2020/10/06 06:42:53;;;;;;;;;21.25;19.25;;;;;;;;3725321;38;21710;-56
2020/10/06 06:45:20;;;;;;;;;29.75;23.25;;;;;;;;3725439;38;18596;-56
2020/10/06 06:47:46;;;;;;;;;37.25;30.50;;;;;;;;3725275;37;21670;-56
2020/10/06 06:50:13;;;;;;;;;31.75;26.50;;;;;;;;3724224;38;18597;-57
2020/10/06 06:52:40;;;;;;;;;31.75;25.00;;;;;;;;3724786;38;21690;-56
2020/10/06 06:55:06;;;;;;;;;34.00;24.50;;;;;;;;3724767;37;21680;-56
2020/10/06 06:57:33;;;;;;;;;31.50;23.25;;;;;;;;3724962;38;18585;-57
2020/10/06 07:00:00;;;;;;;;;27.25;23.00;;;;;;;;3725069;37;18598;-57
2020/10/06 07:02:26;;;;;;;;;26.25;23.75;;;;;;;;3724370;37;21671;-55
2020/10/06 07:04:51;;;;;;;;;29.75;26.00;;;;;;;;3725074;37;18577;-55
2020/10/06 07:07:19;;;;;;;;;32.00;25.50;;;;;;;;3723786;38;18571;-57
2020/10/06 07:09:46;;;;;;;;;35.75;24.50;;;;;;;;3725297;37;18569;-53
2020/10/06 07:12:12;;;;;;;;;24.75;23.50;;;;;;;;3725020;37;21728;-54
2020/10/06 07:14:38;;;;;;;;;32.75;24.50;;;;;;;;3725215;38;21556;-54
2020/10/06 07:17:04;;;;;;;;;36.25;27.00;;;;;;;;3725572;38;21657;-56
2020/10/06 07:19:30;;;;;;;;;30.25;25.25;;;;;;;;3727591;38;18550;-56
2020/10/06 07:21:56;;;;;;;;;32.75;25.00;;;;;;;;3727283;38;21659;-55
2020/10/06 07:24:22;;;;;;;;;29.75;22.00;;;;;;;;3725229;38;21653;-54
2020/10/06 07:26:48;;;;;;;;;32.00;24.25;;;;;;;;3725352;37;18555;-56
2020/10/06 07:29:15;;;;;;;;;27.50;24.25;;;;;;;;3725113;37;21606;-56
2020/10/06 07:31:41;;;;;;;;;30.00;24.75;;;;;;;;3725373;38;21628;-55
2020/10/06 07:34:08;;;;;;;;;22.75;21.75;;;;;;;;3725225;37;21637;-54
2020/10/06 07:36:34;;;;;;;;;31.00;27.25;;;;;;;;3725441;38;21633;-56
2020/10/06 07:39:00;;;;;;;;;24.50;19.50;;;;;;;;3725354;37;21463;-56
2020/10/06 07:41:26;;;;;;;;;30.00;24.75;;;;;;;;3725165;38;21593;-56
2020/10/06 07:43:52;;;;;;;;;34.25;25.50;;;;;;;;3725478;37;18539;-55
2020/10/06 07:46:19;;;;;;;;;31.00;24.25;;;;;;;;3725369;38;18550;-55
2020/10/06 07:48:45;;;;;;;;;27.75;25.00;;;;;;;;3725475;38;21624;-55
2020/10/06 07:51:12;;;;;;;;;30.00;23.25;;;;;;;;3725332;37;21646;-54
2020/10/06 07:53:38;;;;;;;;;36.50;28.75;;;;;;;;3725461;38;18522;-54
2020/10/06 07:56:04;;;;;;;;;29.25;23.75;;;;;;;;3725586;38;21586;-55
2020/10/06 07:58:30;;;;;;;;;33.75;26.50;;;;;;;;3725386;38;21590;-57
2020/10/06 08:00:56;;;;;;;;;34.75;27.00;;;;;;;;3725960;37;18509;-56
2020/10/06 08:03:23;;;;;;;;;34.25;25.75;;;;;;;;3726112;37;18487;-56
2020/10/06 08:05:58;;;;;;;;;35.75;28.00;;;;;;;;3725924;38;18514;-59
2020/10/06 08:08:25;;;;;;;;;31.75;25.00;;;;;;;;3725368;38;21560;-56
2020/10/06 08:10:51;;;;;;;;;32.50;24.50;;;;;;;;3725736;37;21535;-56
2020/10/06 08:13:17;;;;;;;;;31.50;25.75;;;;;;;;3724899;38;21555;-56
2020/10/06 08:15:44;;;;;;;;;25.00;21.00;;;;;;;;3725276;38;18500;-61
2020/10/06 08:18:11;;;;;;;;;28.75;26.00;;;;;;;;3725231;37;21532;-55
2020/10/06 08:20:37;;;;;;;;;28.50;22.00;;;;;;;;3725517;37;18486;-55
2020/10/06 08:23:03;;;;;;;;;29.25;25.25;;;;;;;;3725313;37;21575;-59
2020/10/06 08:25:30;;;;;;;;;29.75;26.00;;;;;;;;3725156;38;21513;-54
2020/10/06 08:27:56;;;;;;;;;23.25;22.00;;;;;;;;3725298;38;21534;-55
2020/10/06 08:30:22;;;;;;;;;24.25;22.00;;;;;;;;3725329;37;18486;-55
2020/10/06 08:32:48;;;;;;;;;26.25;23.75;;;;;;;;3725321;37;21525;-55
2020/10/06 08:35:15;;;;;;;;;24.00;19.75;;;;;;;;3725232;38;21559;-57
2020/10/06 08:37:41;;;;;;;;;26.50;23.00;;;;;;;;3725193;38;21544;-54
2020/10/06 08:40:08;;;;;;;;;27.50;23.00;;;;;;;;3725128;38;21529;-54
2020/10/06 08:42:34;;;;;;;;;22.50;20.25;;;;;;;;3725290;38;18447;-54
2020/10/06 08:45:00;;;;;;;;;25.00;21.25;;;;;;;;3724417;37;21514;-54
2020/10/06 08:47:26;;;;;;;;;25.25;21.25;;;;;;;;3724567;38;18476;-54
2020/10/06 08:49:52;;;;;;;;;22.00;19.75;;;;;;;;3724878;37;18438;-55
2020/10/06 08:52:25;;;;;;;;;29.75;27.25;;;;;;;;3725182;38;21509;-55
2020/10/06 08:54:52;;;;;;;;;26.75;23.00;;;;;;;;3725229;37;21529;-54
2020/10/06 08:57:18;;;;;;;;;25.25;21.00;;;;;;;;3724597;37;21525;-55
2020/10/06 08:59:44;;;;;;;;;24.50;21.25;;;;;;;;3724502;37;21518;-55
2020/10/06 09:02:11;;;;;;;;;21.50;19.50;;;;;;;;3724428;37;18410;-55
2020/10/06 09:04:37;;;;;;;;;24.25;18.00;;;;;;;;3724002;37;18417;-55
2020/10/06 09:07:03;;;;;;;;;20.25;17.75;;;;;;;;3724396;37;21761;-55
2020/10/06 09:09:30;;;;;;;;;22.00;20.25;;;;;;;;3724347;38;18435;-55
2020/10/06 09:11:56;;;;;;;;;21.75;18.50;;;;;;;;3724433;37;18406;-55
2020/10/06 09:14:22;;;;;;;;;25.25;21.00;;;;;;;;3724392;38;21486;-54
2020/10/06 09:16:49;;;;;;;;;27.25;20.75;;;;;;;;3724964;38;18412;-55
2020/10/06 09:19:16;;;;;;;;;18.00;17.25;;;;;;;;3725142;38;21491;-55
2020/10/06 09:21:42;;;;;;;;;22.25;20.25;;;;;;;;3725792;38;18396;-55
2020/10/06 09:24:09;;;;;;;;;24.25;21.00;;;;;;;;3727518;38;21523;-53
2020/10/06 09:26:35;;;;;;;;;21.75;19.25;;;;;;;;3736226;37;21337;-55
2020/10/06 09:29:02;;;;;;;;;18.50;18.50;;;;;;;;3725334;38;21512;-54
2020/10/06 09:31:29;;;;;;;;;18.50;15.75;;;;;;;;3725236;38;21486;-54
2020/10/06 09:33:54;;;;;;;;;23.00;19.00;;;;;;;;3725413;37;21467;-55
2020/10/06 09:36:20;;;;;;;;;22.25;20.25;;;;;;;;3725417;38;21442;-54
2020/10/06 09:38:46;;;;;;;;;23.25;21.50;;;;;;;;3724630;38;18397;-56
2020/10/06 09:41:12;;;;;;;;;22.50;19.00;;;;;;;;3725642;37;18370;-57
2020/10/06 09:43:39;;;;;;;;;21.25;20.00;;;;;;;;3725686;37;21479;-56
2020/10/06 09:46:05;;;;;;;;;25.25;23.25;;;;;;;;3725769;38;21447;-56
2020/10/06 09:48:33;;;;;;;;;25.50;21.00;;;;;;;;3725418;38;21466;-55
2020/10/06 09:50:59;;;;;;;;;24.75;20.75;;;;;;;;3724944;37;21443;-54
2020/10/06 09:53:26;;;;;;;;;24.75;21.00;;;;;;;;3725084;37;21455;-54
2020/10/06 09:55:52;;;;;;;;;27.50;24.25;;;;;;;;3725521;38;21505;-54
2020/10/06 09:58:22;;;;;;;;;23.00;21.75;;;;;;;;3725435;37;21397;-59
2020/10/06 10:00:47;;;;;;;;;25.25;23.25;;;;;;;;3725257;37;21403;-55
2020/10/06 10:03:14;;;;;;;;;23.75;21.50;;;;;;;;3725379;37;21378;-57
2020/10/06 10:05:40;;;;;;;;;24.75;22.50;;;;;;;;3725052;37;18360;-55
2020/10/06 10:08:06;;;;;;;;;20.00;19.00;;;;;;;;3725186;38;21372;-54
2020/10/06 10:10:32;;;;;;;;;25.75;22.25;;;;;;;;3725224;37;18345;-54
2020/10/06 10:12:58;;;;;;;;;22.25;20.50;;;;;;;;3725328;37;18322;-54
2020/10/06 10:15:24;;;;;;;;;23.00;20.25;;;;;;;;3725369;38;18313;-54
2020/10/06 10:17:51;;;;;;;;;21.00;19.25;;;;;;;;3725339;37;18347;-56
2020/10/06 10:20:18;;;;;;;;;21.50;20.00;;;;;;;;3725227;37;18587;-54
2020/10/06 10:22:44;;;;;;;;;21.25;20.00;;;;;;;;3725262;37;21401;-53
2020/10/06 10:25:10;;;;;;;;;23.25;21.25;;;;;;;;3725443;38;18301;-55
2020/10/06 10:27:38;;;;;;;;;24.50;22.75;;;;;;;;3725395;37;18321;-54
2020/10/06 10:30:04;;;;;;;;;20.50;18.75;;;;;;;;3724962;37;18303;-54
2020/10/06 10:32:30;;;;;;;;;21.75;20.00;;;;;;;;3725400;38;21379;-55
2020/10/06 10:34:57;;;;;;;;;19.50;17.00;;;;;;;;3725318;38;21372;-55
2020/10/06 10:37:23;;;;;;;;;22.00;20.25;;;;;;;;3725429;37;21406;-55
2020/10/06 10:39:49;;;;;;;;;19.00;18.00;;;;;;;;3725337;37;18315;-54
2020/10/06 10:42:15;;;;;;;;;17.50;17.25;;;;;;;;3725524;37;21403;-55
2020/10/06 10:44:41;;;;;;;;;23.00;19.25;;;;;;;;3725590;37;21403;-56
2020/10/06 10:47:08;;;;;;;;;19.75;17.75;;;;;;;;3725799;37;21357;-56
2020/10/06 10:49:34;;;;;;;;;21.50;18.25;;;;;;;;3725707;38;18303;-56
2020/10/06 10:52:00;;;;;;;;;24.75;20.75;;;;;;;;3725523;38;21386;-56
2020/10/06 10:54:26;;;;;;;;;22.00;19.00;;;;;;;;3725482;37;18296;-56
2020/10/06 10:56:54;;;;;;;;;20.50;17.50;;;;;;;;3725051;38;18299;-55
2020/10/06 10:59:20;;;;;;;;;20.75;19.00;;;;;;;;3725292;37;21341;-54
2020/10/06 11:01:47;;;;;;;;;19.25;18.50;;;;;;;;3725105;37;21352;-55
2020/10/06 11:04:15;;;;;;;;;23.00;20.00;;;;;;;;3725355;38;18281;-55
2020/10/06 11:06:41;;;;;;;;;22.25;19.25;;;;;;;;3725248;37;21388;-56
2020/10/06 11:09:09;;;;;;;;;23.50;18.00;;;;;;;;3725089;38;21326;-56
2020/10/06 11:11:35;;;;;;;;;22.25;20.25;;;;;;;;3725495;37;18264;-57
2020/10/06 11:14:01;;;;;;;;;20.50;15.50;;;;;;;;3725326;38;21342;-55
2020/10/06 11:16:28;;;;;;;;;22.00;18.00;;;;;;;;3724917;38;18251;-55
2020/10/06 11:18:54;;;;;;;;;21.25;19.50;;;;;;;;3725420;38;21379;-55
2020/10/06 11:21:21;;;;;;;;;19.25;16.75;;;;;;;;3725568;38;18243;-55
2020/10/06 11:23:47;;;;;;;;;18.50;17.75;;;;;;;;3725015;37;21320;-54
2020/10/06 11:26:14;;;;;;;;;19.25;16.50;;;;;;;;3725383;38;21334;-54
2020/10/06 11:28:41;;;;;;;;;20.00;18.00;;;;;;;;3725346;38;21337;-55
2020/10/06 11:31:07;;;;;;;;;21.50;18.00;;;;;;;;3725374;37;21333;-56
2020/10/06 11:33:39;;;;;;;;;21.00;17.50;;;;;;;;3725481;37;21295;-55
2020/10/06 11:36:08;;;;;;;;;20.75;19.25;;;;;;;;3724991;37;21289;-56
2020/10/06 11:38:36;;;;;;;;;19.50;18.50;;;;;;;;3725349;37;21341;-55
2020/10/06 11:41:02;;;;;;;;;20.50;19.50;;;;;;;;3724135;37;21318;-55
2020/10/06 11:43:29;;;;;;;;;18.50;17.50;;;;;;;;3725293;38;21289;-54
2020/10/06 11:45:55;;;;;;;;;21.25;19.25;;;;;;;;3725265;38;18214;-55
2020/10/06 11:48:21;;;;;;;;;23.75;22.25;;;;;;;;3726555;37;21276;-63
2020/10/06 11:50:47;;;;;;;;;23.00;19.25;;;;;;;;3728786;38;18207;-54
2020/10/06 11:53:14;;;;;;;;;25.25;21.00;;;;;;;;3725294;37;21283;-54
2020/10/06 11:55:41;;;;;;;;;27.75;24.00;;;;;;;;3725083;38;21288;-55
2020/10/06 11:58:08;;;;;;;;;31.50;26.25;;;;;;;;3724735;37;21228;-55
2020/10/06 12:00:33;;;;;;;;;30.25;27.00;;;;;;;;3725237;37;21243;-55
2020/10/06 12:03:01;;;;;;;;;27.25;24.50;;;;;;;;3725310;37;18205;-54
2020/10/06 12:05:26;;;;;;;;;24.75;22.75;;;;;;;;3725394;37;18179;-54
2020/10/06 12:07:52;;;;;;;;;30.00;26.25;;;;;;;;3725134;38;21239;-56
2020/10/06 12:10:19;;;;;;;;;26.25;24.00;;;;;;;;3725127;38;18193;-55
2020/10/06 12:12:46;;;;;;;;;29.25;26.00;;;;;;;;3725341;38;18161;-55
2020/10/06 12:15:13;;;;;;;;;29.00;25.25;;;;;;;;3724968;38;21235;-54
2020/10/06 12:17:39;;;;;;;;;24.25;20.25;;;;;;;;3725282;37;21209;-60
2020/10/06 12:20:05;;;;;;;;;27.50;26.50;;;;;;;;3725229;38;18184;-55
2020/10/06 12:22:31;;;;;;;;;24.75;23.00;;;;;;;;3725499;38;21198;-53
2020/10/06 12:24:57;;;;;;;;;28.75;26.25;;;;;;;;3725312;38;21201;-53
2020/10/06 12:27:23;;;;;;;;;26.25;23.25;;;;;;;;3725164;37;21190;-55
2020/10/06 12:29:50;;;;;;;;;24.00;22.50;;;;;;;;3725336;38;21199;-52
2020/10/06 12:32:16;;;;;;;;;24.25;22.50;;;;;;;;3725433;38;18142;-53
2020/10/06 12:34:42;;;;;;;;;25.25;22.25;;;;;;;;3725332;38;21211;-54
2020/10/06 12:37:09;;;;;;;;;28.00;24.00;;;;;;;;3725313;37;21232;-53
2020/10/06 12:39:36;;;;;;;;;26.50;23.50;;;;;;;;3725307;37;21232;-53
2020/10/06 12:42:02;;;;;;;;;24.00;21.50;;;;;;;;3725295;37;21225;-54
2020/10/06 12:44:28;;;;;;;;;26.50;23.25;;;;;;;;3725376;37;21218;-53
2020/10/06 12:46:55;;;;;;;;;27.25;24.50;;;;;;;;3725327;37;21216;-53
2020/10/06 12:49:21;;;;;;;;;27.25;24.75;;;;;;;;3725162;37;21262;-55
2020/10/06 12:51:47;;;;;;;;;27.25;24.00;;;;;;;;3725274;37;21215;-53
2020/10/06 12:54:14;;;;;;;;;24.50;23.50;;;;;;;;3725388;37;18117;-53
2020/10/06 12:56:41;;;;;;;;;27.75;24.00;;;;;;;;3725292;37;21147;-55
2020/10/06 12:59:07;;;;;;;;;25.75;24.50;;;;;;;;3724846;37;21169;-56
2020/10/06 13:01:34;;;;;;;;;24.00;21.00;;;;;;;;3725364;37;21176;-53
2020/10/06 13:04:00;;;;;;;;;24.75;24.00;;;;;;;;3725298;38;21173;-54
2020/10/06 13:06:26;;;;;;;;;25.75;21.75;;;;;;;;3725243;37;21155;-54
2020/10/06 13:08:52;;;;;;;;;27.75;22.25;;;;;;;;3725363;37;18090;-53
2020/10/06 13:11:18;;;;;;;;;21.00;18.75;;;;;;;;3725311;38;21174;-53
2020/10/06 13:13:45;;;;;;;;;24.50;22.75;;;;;;;;3725414;38;21171;-54
2020/10/06 13:16:11;;;;;;;;;25.00;22.00;;;;;;;;3725466;37;21132;-53
2020/10/06 13:18:38;;;;;;;;;22.50;21.25;;;;;;;;3725530;37;21151;-53
2020/10/06 13:21:05;;;;;;;;;22.75;21.50;;;;;;;;3725617;37;18068;-53
2020/10/06 13:23:32;;;;;;;;;20.50;19.75;;;;;;;;3725606;37;21212;-54
2020/10/06 13:25:58;;;;;;;;;25.00;22.00;;;;;;;;3725485;38;21119;-53
2020/10/06 13:28:24;;;;;;;;;23.50;17.75;;;;;;;;3726441;37;21059;-54
2020/10/06 13:30:51;;;;;;;;;22.00;21.75;;;;;;;;3725743;38;21187;-53
2020/10/06 13:33:17;;;;;;;;;22.75;21.75;;;;;;;;3726001;38;18079;-55
2020/10/06 13:35:43;;;;;;;;;16.50;16.50;;;;;;;;3725897;38;21138;-58
2020/10/06 13:38:09;;;;;;;;;22.00;21.50;;;;;;;;3725377;37;18084;-54
2020/10/06 13:40:34;;;;;;;;;24.00;19.75;;;;;;;;3725015;38;18039;-55
2020/10/06 13:43:06;;;;;;;;;20.50;19.00;;;;;;;;3725322;38;18050;-54
2020/10/06 13:45:34;;;;;;;;;21.00;20.00;;;;;;;;3725389;38;18048;-54
2020/10/06 13:48:01;;;;;;;;;20.25;19.00;;;;;;;;3725239;38;21136;-54
2020/10/06 13:50:31;;;;;;;;;18.00;17.25;;;;;;;;3725140;38;21212;-54
2020/10/06 13:52:58;;;;;;;;;23.00;21.75;;;;;;;;3725429;38;21121;-54
2020/10/06 13:55:23;;;;;;;;;22.00;21.25;;;;;;;;3725304;38;21127;-52
2020/10/06 13:57:52;;;;;;;;;20.25;18.25;;;;;;;;3725131;38;21129;-54
2020/10/06 14:00:18;;;;;;;;;23.50;21.00;;;;;;;;3725176;37;21090;-55
2020/10/06 14:02:45;;;;;;;;;21.50;19.00;;;;;;;;3725295;37;21114;-54
2020/10/06 14:05:11;;;;;;;;;22.50;19.25;;;;;;;;3725478;38;18044;-55
2020/10/06 14:07:39;;;;;;;;;21.00;20.00;;;;;;;;3727883;37;21090;-55
2020/10/06 14:10:05;;;;;;;;;22.75;21.75;;;;;;;;3726654;38;21073;-54
2020/10/06 14:12:31;;;;;;;;;20.50;20.25;;;;;;;;3725480;38;21097;-55
2020/10/06 14:14:58;;;;;;;;;21.00;21.00;;;;;;;;3725493;37;18022;-55